sensor_id;sensor_type;location;lat;lon;timestamp;P1;durP1;ratioP1;P2;durP2;ratioP2
50555;SDS011;36508;52.512;13.450;2023-06-26T00:00:58;13.93;;;13.07;;
50555;SDS011;36508;52.512;13.450;2023-06-26T00:03:24;19.27;;;17.77;;
50555;SDS011;36508;52.512;13.450;2023-06-26T00:05:49;14.40;;;13.50;;
50555;SDS011;36508;52.512;13.450;2023-06-26T00:08:15;15.67;;;14.50;;
50555;SDS011;36508;52.512;13.450;2023-06-26T00:10:41;17.10;;;15.70;;
50555;SDS011;36508;52.512;13.450;2023-06-26T00:13:06;14.27;;;13.37;;
50555;SDS011;36508;52.512;13.450;2023-06-26T00:15:32;15.97;;;14.57;;
50555;SDS011;36508;52.512;13.450;2023-06-26T00:18:00;15.57;;;14.47;;
50555;SDS011;36508;52.512;13.450;2023-06-26T00:20:28;14.70;;;13.70;;
50555;SDS011;36508;52.512;13.450;2023-06-26T00:22:54;13.80;;;12.90;;
50555;SDS011;36508;52.512;13.450;2023-06-26T00:25:20;16.07;;;14.43;;
50555;SDS011;36508;52.512;13.450;2023-06-26T00:27:46;17.00;;;15.53;;
50555;SDS011;36508;52.512;13.450;2023-06-26T00:30:12;15.30;;;14.00;;
50555;SDS011;36508;52.512;13.450;2023-06-26T00:32:37;14.73;;;13.63;;
50555;SDS011;36508;52.512;13.450;2023-06-26T00:35:03;16.47;;;15.27;;
50555;SDS011;36508;52.512;13.450;2023-06-26T00:37:29;15.33;;;14.33;;
50555;SDS011;36508;52.512;13.450;2023-06-26T00:39:54;15.40;;;14.20;;
50555;SDS011;36508;52.512;13.450;2023-06-26T00:42:20;15.27;;;14.07;;
50555;SDS011;36508;52.512;13.450;2023-06-26T00:44:45;15.83;;;14.63;;
50555;SDS011;36508;52.512;13.450;2023-06-26T00:47:12;17.03;;;15.83;;
50555;SDS011;36508;52.512;13.450;2023-06-26T00:49:40;17.83;;;16.60;;
50555;SDS011;36508;52.512;13.450;2023-06-26T00:52:06;16.47;;;15.37;;
50555;SDS011;36508;52.512;13.450;2023-06-26T00:54:32;16.03;;;14.73;;
50555;SDS011;36508;52.512;13.450;2023-06-26T00:56:58;15.13;;;14.13;;
50555;SDS011;36508;52.512;13.450;2023-06-26T00:59:24;15.40;;;14.23;;
50555;SDS011;36508;52.512;13.450;2023-06-26T01:01:49;16.40;;;15.10;;
50555;SDS011;36508;52.512;13.450;2023-06-26T01:04:15;17.60;;;16.30;;
50555;SDS011;36508;52.512;13.450;2023-06-26T01:06:46;18.17;;;16.67;;
50555;SDS011;36508;52.512;13.450;2023-06-26T01:09:16;15.83;;;14.57;;
50555;SDS011;36508;52.512;13.450;2023-06-26T01:11:43;15.80;;;14.57;;
50555;SDS011;36508;52.512;13.450;2023-06-26T01:14:09;14.90;;;13.77;;
50555;SDS011;36508;52.512;13.450;2023-06-26T01:16:35;16.77;;;15.67;;
50555;SDS011;36508;52.512;13.450;2023-06-26T01:19:02;16.67;;;15.57;;
50555;SDS011;36508;52.512;13.450;2023-06-26T01:21:34;16.83;;;15.50;;
50555;SDS011;36508;52.512;13.450;2023-06-26T01:24:09;15.50;;;14.50;;
50555;SDS011;36508;52.512;13.450;2023-06-26T01:26:45;15.10;;;14.20;;
50555;SDS011;36508;52.512;13.450;2023-06-26T01:29:11;16.20;;;14.97;;
50555;SDS011;36508;52.512;13.450;2023-06-26T01:34:32;15.37;;;14.27;;
50555;SDS011;36508;52.512;13.450;2023-06-26T01:36:58;17.20;;;15.97;;
50555;SDS011;36508;52.512;13.450;2023-06-26T01:39:29;15.90;;;14.70;;
50555;SDS011;36508;52.512;13.450;2023-06-26T01:41:55;14.30;;;13.30;;
50555;SDS011;36508;52.512;13.450;2023-06-26T01:44:30;17.43;;;16.33;;
50555;SDS011;36508;52.512;13.450;2023-06-26T01:47:02;16.90;;;15.70;;
50555;SDS011;36508;52.512;13.450;2023-06-26T01:52:35;16.53;;;15.43;;
50555;SDS011;36508;52.512;13.450;2023-06-26T01:55:06;15.10;;;14.20;;
50555;SDS011;36508;52.512;13.450;2023-06-26T01:57:37;16.17;;;15.00;;
50555;SDS011;36508;52.512;13.450;2023-06-26T02:00:04;15.33;;;14.30;;
50555;SDS011;36508;52.512;13.450;2023-06-26T02:02:31;16.17;;;15.17;;
50555;SDS011;36508;52.512;13.450;2023-06-26T02:04:57;17.33;;;16.27;;
50555;SDS011;36508;52.512;13.450;2023-06-26T02:07:22;17.27;;;16.07;;
50555;SDS011;36508;52.512;13.450;2023-06-26T02:09:48;17.03;;;15.93;;
50555;SDS011;36508;52.512;13.450;2023-06-26T02:12:13;17.73;;;16.43;;
50555;SDS011;36508;52.512;13.450;2023-06-26T02:14:39;17.70;;;16.50;;
50555;SDS011;36508;52.512;13.450;2023-06-26T02:17:05;18.57;;;16.90;;
50555;SDS011;36508;52.512;13.450;2023-06-26T02:19:31;17.87;;;16.57;;
50555;SDS011;36508;52.512;13.450;2023-06-26T02:21:57;17.50;;;16.50;;
50555;SDS011;36508;52.512;13.450;2023-06-26T02:24:23;18.60;;;17.40;;
50555;SDS011;36508;52.512;13.450;2023-06-26T02:26:48;18.33;;;16.80;;
50555;SDS011;36508;52.512;13.450;2023-06-26T02:29:14;20.67;;;19.20;;
50555;SDS011;36508;52.512;13.450;2023-06-26T02:31:40;17.10;;;16.00;;
50555;SDS011;36508;52.512;13.450;2023-06-26T02:34:06;18.73;;;17.40;;
50555;SDS011;36508;52.512;13.450;2023-06-26T02:36:38;16.60;;;15.30;;
50555;SDS011;36508;52.512;13.450;2023-06-26T02:39:04;18.10;;;16.90;;
50555;SDS011;36508;52.512;13.450;2023-06-26T02:41:30;18.30;;;17.10;;
50555;SDS011;36508;52.512;13.450;2023-06-26T02:43:55;16.67;;;15.47;;
50555;SDS011;36508;52.512;13.450;2023-06-26T02:46:21;18.53;;;17.33;;
50555;SDS011;36508;52.512;13.450;2023-06-26T02:48:46;18.30;;;17.13;;
50555;SDS011;36508;52.512;13.450;2023-06-26T02:51:12;19.33;;;17.73;;
50555;SDS011;36508;52.512;13.450;2023-06-26T02:53:37;18.90;;;17.60;;
50555;SDS011;36508;52.512;13.450;2023-06-26T02:56:03;19.27;;;17.97;;
50555;SDS011;36508;52.512;13.450;2023-06-26T02:58:29;18.87;;;17.50;;
50555;SDS011;36508;52.512;13.450;2023-06-26T03:00:55;19.27;;;17.97;;
50555;SDS011;36508;52.512;13.450;2023-06-26T03:03:21;18.83;;;17.47;;
50555;SDS011;36508;52.512;13.450;2023-06-26T03:05:47;20.47;;;18.83;;
50555;SDS011;36508;52.512;13.450;2023-06-26T03:08:12;19.77;;;18.53;;
50555;SDS011;36508;52.512;13.450;2023-06-26T03:10:38;20.40;;;18.93;;
50555;SDS011;36508;52.512;13.450;2023-06-26T03:13:04;20.53;;;19.17;;
50555;SDS011;36508;52.512;13.450;2023-06-26T03:15:29;21.87;;;20.47;;
50555;SDS011;36508;52.512;13.450;2023-06-26T03:17:55;20.17;;;18.80;;
50555;SDS011;36508;52.512;13.450;2023-06-26T03:20:22;17.73;;;16.57;;
50555;SDS011;36508;52.512;13.450;2023-06-26T03:22:47;19.23;;;17.83;;
50555;SDS011;36508;52.512;13.450;2023-06-26T03:25:13;21.20;;;19.60;;
50555;SDS011;36508;52.512;13.450;2023-06-26T03:27:39;20.27;;;18.87;;
50555;SDS011;36508;52.512;13.450;2023-06-26T03:30:04;19.83;;;18.50;;
50555;SDS011;36508;52.512;13.450;2023-06-26T03:32:31;22.00;;;20.40;;
50555;SDS011;36508;52.512;13.450;2023-06-26T03:34:56;21.97;;;20.53;;
50555;SDS011;36508;52.512;13.450;2023-06-26T03:37:22;23.40;;;21.73;;
50555;SDS011;36508;52.512;13.450;2023-06-26T03:39:48;21.97;;;20.47;;
50555;SDS011;36508;52.512;13.450;2023-06-26T03:42:13;23.77;;;22.13;;
50555;SDS011;36508;52.512;13.450;2023-06-26T03:44:39;23.07;;;21.37;;
50555;SDS011;36508;52.512;13.450;2023-06-26T03:47:04;23.10;;;21.50;;
50555;SDS011;36508;52.512;13.450;2023-06-26T03:49:42;23.73;;;22.23;;
50555;SDS011;36508;52.512;13.450;2023-06-26T03:52:08;20.50;;;18.97;;
50555;SDS011;36508;52.512;13.450;2023-06-26T03:54:34;23.77;;;21.83;;
50555;SDS011;36508;52.512;13.450;2023-06-26T03:56:59;20.30;;;18.80;;
50555;SDS011;36508;52.512;13.450;2023-06-26T03:59:25;22.47;;;20.90;;
50555;SDS011;36508;52.512;13.450;2023-06-26T04:01:50;23.07;;;20.83;;
50555;SDS011;36508;52.512;13.450;2023-06-26T04:04:16;23.33;;;21.70;;
50555;SDS011;36508;52.512;13.450;2023-06-26T04:06:45;22.53;;;21.00;;
50555;SDS011;36508;52.512;13.450;2023-06-26T04:09:11;22.47;;;20.77;;
50555;SDS011;36508;52.512;13.450;2023-06-26T04:11:37;21.50;;;20.20;;
50555;SDS011;36508;52.512;13.450;2023-06-26T04:14:02;22.17;;;20.77;;
50555;SDS011;36508;52.512;13.450;2023-06-26T04:16:28;24.07;;;22.47;;
50555;SDS011;36508;52.512;13.450;2023-06-26T04:18:53;23.60;;;22.07;;
50555;SDS011;36508;52.512;13.450;2023-06-26T04:21:21;22.27;;;20.43;;
50555;SDS011;36508;52.512;13.450;2023-06-26T04:23:48;22.53;;;21.13;;
50555;SDS011;36508;52.512;13.450;2023-06-26T04:26:14;24.27;;;21.93;;
50555;SDS011;36508;52.512;13.450;2023-06-26T04:28:40;21.60;;;20.20;;
50555;SDS011;36508;52.512;13.450;2023-06-26T04:31:06;23.07;;;21.47;;
50555;SDS011;36508;52.512;13.450;2023-06-26T04:33:32;21.23;;;19.80;;
50555;SDS011;36508;52.512;13.450;2023-06-26T04:35:58;22.77;;;21.27;;
50555;SDS011;36508;52.512;13.450;2023-06-26T04:38:27;23.93;;;22.40;;
50555;SDS011;36508;52.512;13.450;2023-06-26T04:40:53;23.07;;;21.47;;
50555;SDS011;36508;52.512;13.450;2023-06-26T04:43:18;25.47;;;23.87;;
50555;SDS011;36508;52.512;13.450;2023-06-26T04:45:44;21.77;;;20.30;;
50555;SDS011;36508;52.512;13.450;2023-06-26T04:48:09;23.97;;;22.17;;
50555;SDS011;36508;52.512;13.450;2023-06-26T04:50:35;24.43;;;22.87;;
50555;SDS011;36508;52.512;13.450;2023-06-26T04:53:01;21.47;;;20.07;;
50555;SDS011;36508;52.512;13.450;2023-06-26T04:55:27;22.93;;;21.23;;
50555;SDS011;36508;52.512;13.450;2023-06-26T04:57:53;21.30;;;19.90;;
50555;SDS011;36508;52.512;13.450;2023-06-26T05:00:19;22.33;;;20.67;;
50555;SDS011;36508;52.512;13.450;2023-06-26T05:02:44;21.77;;;20.07;;
50555;SDS011;36508;52.512;13.450;2023-06-26T05:05:10;22.77;;;21.37;;
50555;SDS011;36508;52.512;13.450;2023-06-26T05:07:36;21.30;;;19.87;;
50555;SDS011;36508;52.512;13.450;2023-06-26T05:10:04;20.17;;;18.93;;
50555;SDS011;36508;52.512;13.450;2023-06-26T05:12:30;21.57;;;20.07;;
50555;SDS011;36508;52.512;13.450;2023-06-26T05:14:55;21.97;;;20.30;;
50555;SDS011;36508;52.512;13.450;2023-06-26T05:17:21;20.67;;;19.27;;
50555;SDS011;36508;52.512;13.450;2023-06-26T05:19:47;21.00;;;19.60;;
50555;SDS011;36508;52.512;13.450;2023-06-26T05:22:12;21.57;;;20.07;;
50555;SDS011;36508;52.512;13.450;2023-06-26T05:24:38;21.53;;;20.03;;
50555;SDS011;36508;52.512;13.450;2023-06-26T05:27:05;21.57;;;20.07;;
50555;SDS011;36508;52.512;13.450;2023-06-26T05:29:31;21.90;;;20.30;;
50555;SDS011;36508;52.512;13.450;2023-06-26T05:31:58;21.43;;;19.77;;
50555;SDS011;36508;52.512;13.450;2023-06-26T05:34:25;19.63;;;18.30;;
50555;SDS011;36508;52.512;13.450;2023-06-26T05:37:00;19.10;;;17.90;;
50555;SDS011;36508;52.512;13.450;2023-06-26T05:39:26;17.83;;;16.63;;
50555;SDS011;36508;52.512;13.450;2023-06-26T05:41:52;20.00;;;18.70;;
50555;SDS011;36508;52.512;13.450;2023-06-26T05:44:19;20.37;;;18.90;;
50555;SDS011;36508;52.512;13.450;2023-06-26T05:46:45;18.87;;;17.57;;
50555;SDS011;36508;52.512;13.450;2023-06-26T05:49:11;19.27;;;17.73;;
50555;SDS011;36508;52.512;13.450;2023-06-26T05:51:36;20.53;;;19.10;;
50555;SDS011;36508;52.512;13.450;2023-06-26T05:54:02;18.00;;;16.80;;
50555;SDS011;36508;52.512;13.450;2023-06-26T05:56:30;20.23;;;18.67;;
50555;SDS011;36508;52.512;13.450;2023-06-26T05:58:56;28.13;;;26.03;;
50555;SDS011;36508;52.512;13.450;2023-06-26T06:01:22;19.37;;;18.17;;
50555;SDS011;36508;52.512;13.450;2023-06-26T06:03:49;19.17;;;17.87;;
50555;SDS011;36508;52.512;13.450;2023-06-26T06:06:14;20.10;;;18.80;;
50555;SDS011;36508;52.512;13.450;2023-06-26T06:08:41;19.80;;;18.40;;
50555;SDS011;36508;52.512;13.450;2023-06-26T06:11:06;19.03;;;17.83;;
50555;SDS011;36508;52.512;13.450;2023-06-26T06:13:32;19.27;;;17.87;;
50555;SDS011;36508;52.512;13.450;2023-06-26T06:15:58;18.80;;;17.60;;
50555;SDS011;36508;52.512;13.450;2023-06-26T06:18:23;19.47;;;17.83;;
50555;SDS011;36508;52.512;13.450;2023-06-26T06:20:49;18.47;;;17.17;;
50555;SDS011;36508;52.512;13.450;2023-06-26T06:23:15;18.30;;;17.00;;
50555;SDS011;36508;52.512;13.450;2023-06-26T06:25:40;17.23;;;15.93;;
50555;SDS011;36508;52.512;13.450;2023-06-26T06:28:06;18.73;;;17.10;;
50555;SDS011;36508;52.512;13.450;2023-06-26T06:30:32;17.83;;;16.53;;
50555;SDS011;36508;52.512;13.450;2023-06-26T06:32:58;18.60;;;17.10;;
50555;SDS011;36508;52.512;13.450;2023-06-26T06:35:23;17.70;;;16.60;;
50555;SDS011;36508;52.512;13.450;2023-06-26T06:37:49;16.63;;;15.53;;
50555;SDS011;36508;52.512;13.450;2023-06-26T06:40:15;16.07;;;14.77;;
50555;SDS011;36508;52.512;13.450;2023-06-26T06:42:41;15.63;;;14.47;;
50555;SDS011;36508;52.512;13.450;2023-06-26T06:45:09;18.07;;;16.37;;
50555;SDS011;36508;52.512;13.450;2023-06-26T06:47:35;14.60;;;13.23;;
50555;SDS011;36508;52.512;13.450;2023-06-26T06:50:01;15.20;;;14.20;;
50555;SDS011;36508;52.512;13.450;2023-06-26T06:52:33;13.00;;;12.10;;
50555;SDS011;36508;52.512;13.450;2023-06-26T06:55:02;10.70;;;10.00;;
50555;SDS011;36508;52.512;13.450;2023-06-26T06:57:31;12.30;;;11.50;;
50555;SDS011;36508;52.512;13.450;2023-06-26T07:00:05;15.37;;;14.17;;
50555;SDS011;36508;52.512;13.450;2023-06-26T07:02:33;11.93;;;11.23;;
50555;SDS011;36508;52.512;13.450;2023-06-26T07:05:04;12.50;;;11.47;;
50555;SDS011;36508;52.512;13.450;2023-06-26T07:07:30;11.30;;;10.50;;
50555;SDS011;36508;52.512;13.450;2023-06-26T07:10:01;10.40;;;9.60;;
50555;SDS011;36508;52.512;13.450;2023-06-26T07:12:29;13.40;;;12.30;;
50555;SDS011;36508;52.512;13.450;2023-06-26T07:14:55;12.23;;;11.37;;
50555;SDS011;36508;52.512;13.450;2023-06-26T07:17:25;14.20;;;13.03;;
50555;SDS011;36508;52.512;13.450;2023-06-26T07:19:50;12.80;;;12.00;;
50555;SDS011;36508;52.512;13.450;2023-06-26T07:22:23;13.87;;;12.60;;
50555;SDS011;36508;52.512;13.450;2023-06-26T07:24:49;12.70;;;12.00;;
50555;SDS011;36508;52.512;13.450;2023-06-26T07:27:15;12.73;;;11.83;;
50555;SDS011;36508;52.512;13.450;2023-06-26T07:29:41;11.30;;;10.47;;
50555;SDS011;36508;52.512;13.450;2023-06-26T07:32:08;12.27;;;11.37;;
50555;SDS011;36508;52.512;13.450;2023-06-26T07:34:34;13.00;;;12.10;;
50555;SDS011;36508;52.512;13.450;2023-06-26T07:37:00;12.27;;;11.47;;
50555;SDS011;36508;52.512;13.450;2023-06-26T07:39:25;11.67;;;10.80;;
50555;SDS011;36508;52.512;13.450;2023-06-26T07:41:51;11.73;;;10.83;;
50555;SDS011;36508;52.512;13.450;2023-06-26T07:44:17;11.47;;;10.67;;
50555;SDS011;36508;52.512;13.450;2023-06-26T07:46:43;10.63;;;9.93;;
50555;SDS011;36508;52.512;13.450;2023-06-26T07:49:12;10.90;;;10.00;;
50555;SDS011;36508;52.512;13.450;2023-06-26T07:51:38;11.37;;;10.57;;
50555;SDS011;36508;52.512;13.450;2023-06-26T07:54:04;9.70;;;9.20;;
50555;SDS011;36508;52.512;13.450;2023-06-26T07:56:29;12.03;;;11.03;;
50555;SDS011;36508;52.512;13.450;2023-06-26T07:58:55;9.80;;;9.20;;
50555;SDS011;36508;52.512;13.450;2023-06-26T08:01:23;9.40;;;8.50;;
50555;SDS011;36508;52.512;13.450;2023-06-26T08:03:49;9.80;;;9.20;;
50555;SDS011;36508;52.512;13.450;2023-06-26T08:06:18;9.93;;;9.30;;
50555;SDS011;36508;52.512;13.450;2023-06-26T08:08:43;9.97;;;9.33;;
50555;SDS011;36508;52.512;13.450;2023-06-26T08:11:10;10.53;;;9.73;;
50555;SDS011;36508;52.512;13.450;2023-06-26T08:13:36;10.07;;;9.47;;
50555;SDS011;36508;52.512;13.450;2023-06-26T08:16:02;9.20;;;8.60;;
50555;SDS011;36508;52.512;13.450;2023-06-26T08:18:27;8.70;;;8.00;;
50555;SDS011;36508;52.512;13.450;2023-06-26T08:20:53;10.20;;;9.50;;
50555;SDS011;36508;52.512;13.450;2023-06-26T08:23:19;8.30;;;7.80;;
50555;SDS011;36508;52.512;13.450;2023-06-26T08:25:47;9.20;;;8.60;;
50555;SDS011;36508;52.512;13.450;2023-06-26T08:28:12;8.73;;;8.10;;
50555;SDS011;36508;52.512;13.450;2023-06-26T08:30:38;8.83;;;8.13;;
50555;SDS011;36508;52.512;13.450;2023-06-26T08:33:04;7.70;;;7.30;;
50555;SDS011;36508;52.512;13.450;2023-06-26T08:35:29;8.30;;;7.80;;
50555;SDS011;36508;52.512;13.450;2023-06-26T08:37:55;8.27;;;7.77;;
50555;SDS011;36508;52.512;13.450;2023-06-26T08:40:21;7.40;;;6.90;;
50555;SDS011;36508;52.512;13.450;2023-06-26T08:42:47;8.93;;;8.30;;
50555;SDS011;36508;52.512;13.450;2023-06-26T08:45:17;8.00;;;7.40;;
50555;SDS011;36508;52.512;13.450;2023-06-26T08:47:43;7.50;;;6.90;;
50555;SDS011;36508;52.512;13.450;2023-06-26T08:50:10;6.83;;;6.37;;
50555;SDS011;36508;52.512;13.450;2023-06-26T08:52:58;7.63;;;7.10;;
50555;SDS011;36508;52.512;13.450;2023-06-26T08:55:36;7.30;;;6.90;;
50555;SDS011;36508;52.512;13.450;2023-06-26T08:58:06;6.33;;;5.93;;
50555;SDS011;36508;52.512;13.450;2023-06-26T09:00:31;7.00;;;6.60;;
50555;SDS011;36508;52.512;13.450;2023-06-26T09:02:58;7.20;;;6.80;;
50555;SDS011;36508;52.512;13.450;2023-06-26T09:05:25;6.80;;;6.40;;
50555;SDS011;36508;52.512;13.450;2023-06-26T09:07:56;8.40;;;7.90;;
50555;SDS011;36508;52.512;13.450;2023-06-26T09:10:22;9.20;;;8.50;;
50555;SDS011;36508;52.512;13.450;2023-06-26T09:12:48;6.57;;;6.17;;
50555;SDS011;36508;52.512;13.450;2023-06-26T09:15:14;6.53;;;6.23;;
50555;SDS011;36508;52.512;13.450;2023-06-26T09:17:41;7.17;;;6.77;;
50555;SDS011;36508;52.512;13.450;2023-06-26T09:20:13;8.07;;;7.57;;
50555;SDS011;36508;52.512;13.450;2023-06-26T09:22:40;6.40;;;6.10;;
50555;SDS011;36508;52.512;13.450;2023-06-26T09:25:08;7.53;;;7.17;;
50555;SDS011;36508;52.512;13.450;2023-06-26T09:27:35;8.50;;;8.00;;
50555;SDS011;36508;52.512;13.450;2023-06-26T09:30:05;6.30;;;6.00;;
50555;SDS011;36508;52.512;13.450;2023-06-26T09:32:37;6.37;;;5.97;;
50555;SDS011;36508;52.512;13.450;2023-06-26T09:35:03;7.27;;;6.87;;
50555;SDS011;36508;52.512;13.450;2023-06-26T09:37:30;6.90;;;6.50;;
50555;SDS011;36508;52.512;13.450;2023-06-26T09:39:55;7.07;;;6.77;;
50555;SDS011;36508;52.512;13.450;2023-06-26T09:42:21;6.97;;;6.57;;
50555;SDS011;36508;52.512;13.450;2023-06-26T09:44:48;20.43;;;18.57;;
50555;SDS011;36508;52.512;13.450;2023-06-26T09:47:20;8.17;;;7.67;;
50555;SDS011;36508;52.512;13.450;2023-06-26T09:49:47;7.10;;;6.50;;
50555;SDS011;36508;52.512;13.450;2023-06-26T09:52:14;8.33;;;7.93;;
50555;SDS011;36508;52.512;13.450;2023-06-26T09:54:44;16.23;;;14.93;;
50555;SDS011;36508;52.512;13.450;2023-06-26T09:57:11;12.53;;;11.67;;
50555;SDS011;36508;52.512;13.450;2023-06-26T09:59:39;7.60;;;7.00;;
50555;SDS011;36508;52.512;13.450;2023-06-26T10:02:05;23.40;;;21.37;;
50555;SDS011;36508;52.512;13.450;2023-06-26T10:04:31;8.70;;;8.00;;
50555;SDS011;36508;52.512;13.450;2023-06-26T10:06:58;8.47;;;7.87;;
50555;SDS011;36508;52.512;13.450;2023-06-26T10:09:26;7.67;;;7.07;;
50555;SDS011;36508;52.512;13.450;2023-06-26T10:11:57;9.30;;;8.30;;
50555;SDS011;36508;52.512;13.450;2023-06-26T10:14:29;6.80;;;6.50;;
50555;SDS011;36508;52.512;13.450;2023-06-26T10:16:59;8.03;;;7.53;;
50555;SDS011;36508;52.512;13.450;2023-06-26T10:19:28;10.13;;;9.43;;
50555;SDS011;36508;52.512;13.450;2023-06-26T10:21:56;6.60;;;6.27;;
50555;SDS011;36508;52.512;13.450;2023-06-26T10:24:25;7.80;;;7.30;;
50555;SDS011;36508;52.512;13.450;2023-06-26T10:26:56;7.47;;;6.97;;
50555;SDS011;36508;52.512;13.450;2023-06-26T10:29:24;7.90;;;6.90;;
50555;SDS011;36508;52.512;13.450;2023-06-26T10:31:51;7.13;;;6.80;;
50555;SDS011;36508;52.512;13.450;2023-06-26T10:34:20;7.67;;;7.07;;
50555;SDS011;36508;52.512;13.450;2023-06-26T10:36:46;7.23;;;6.73;;
50555;SDS011;36508;52.512;13.450;2023-06-26T10:39:23;6.00;;;5.70;;
50555;SDS011;36508;52.512;13.450;2023-06-26T10:41:49;7.50;;;6.93;;
50555;SDS011;36508;52.512;13.450;2023-06-26T10:44:21;6.53;;;6.03;;
50555;SDS011;36508;52.512;13.450;2023-06-26T10:49:28;6.33;;;5.93;;
50555;SDS011;36508;52.512;13.450;2023-06-26T10:51:55;7.50;;;7.00;;
50555;SDS011;36508;52.512;13.450;2023-06-26T10:54:25;6.53;;;6.10;;
50555;SDS011;36508;52.512;13.450;2023-06-26T10:56:54;6.20;;;5.90;;
50555;SDS011;36508;52.512;13.450;2023-06-26T10:59:27;5.73;;;5.47;;
50555;SDS011;36508;52.512;13.450;2023-06-26T11:01:54;6.67;;;6.37;;
50555;SDS011;36508;52.512;13.450;2023-06-26T11:07:21;6.33;;;6.03;;
50555;SDS011;36508;52.512;13.450;2023-06-26T11:10:08;6.60;;;6.30;;
50555;SDS011;36508;52.512;13.450;2023-06-26T11:12:38;6.47;;;6.17;;
50555;SDS011;36508;52.512;13.450;2023-06-26T11:15:14;8.67;;;6.47;;
50555;SDS011;36508;52.512;13.450;2023-06-26T11:17:41;7.00;;;6.50;;
50555;SDS011;36508;52.512;13.450;2023-06-26T11:20:11;6.50;;;6.20;;
50555;SDS011;36508;52.512;13.450;2023-06-26T11:22:38;7.20;;;6.90;;
50555;SDS011;36508;52.512;13.450;2023-06-26T11:25:05;6.53;;;6.13;;
50555;SDS011;36508;52.512;13.450;2023-06-26T11:30:07;8.00;;;7.60;;
50555;SDS011;36508;52.512;13.450;2023-06-26T11:32:34;6.90;;;6.50;;
50555;SDS011;36508;52.512;13.450;2023-06-26T11:35:00;7.77;;;7.37;;
50555;SDS011;36508;52.512;13.450;2023-06-26T11:37:26;6.57;;;6.33;;
50555;SDS011;36508;52.512;13.450;2023-06-26T11:39:52;7.80;;;7.40;;
50555;SDS011;36508;52.512;13.450;2023-06-26T11:42:21;7.07;;;6.77;;
50555;SDS011;36508;52.512;13.450;2023-06-26T11:44:49;6.77;;;6.47;;
50555;SDS011;36508;52.512;13.450;2023-06-26T11:47:15;7.40;;;6.80;;
50555;SDS011;36508;52.512;13.450;2023-06-26T11:49:42;6.77;;;6.40;;
50555;SDS011;36508;52.512;13.450;2023-06-26T11:52:08;7.57;;;6.87;;
50555;SDS011;36508;52.512;13.450;2023-06-26T11:54:34;7.50;;;7.00;;
50555;SDS011;36508;52.512;13.450;2023-06-26T11:57:00;7.20;;;6.90;;
50555;SDS011;36508;52.512;13.450;2023-06-26T11:59:37;6.57;;;6.37;;
50555;SDS011;36508;52.512;13.450;2023-06-26T12:02:07;8.27;;;7.70;;
50555;SDS011;36508;52.512;13.450;2023-06-26T12:04:34;7.33;;;6.93;;
50555;SDS011;36508;52.512;13.450;2023-06-26T12:07:01;9.70;;;9.20;;
50555;SDS011;36508;52.512;13.450;2023-06-26T12:09:33;7.63;;;7.23;;
50555;SDS011;36508;52.512;13.450;2023-06-26T12:12:00;7.27;;;6.90;;
50555;SDS011;36508;52.512;13.450;2023-06-26T12:14:26;7.70;;;7.30;;
50555;SDS011;36508;52.512;13.450;2023-06-26T12:16:53;7.47;;;6.97;;
50555;SDS011;36508;52.512;13.450;2023-06-26T12:19:29;7.53;;;7.10;;
50555;SDS011;36508;52.512;13.450;2023-06-26T12:21:55;6.93;;;6.53;;
50555;SDS011;36508;52.512;13.450;2023-06-26T12:24:22;7.63;;;7.30;;
50555;SDS011;36508;52.512;13.450;2023-06-26T12:26:52;6.80;;;6.50;;
50555;SDS011;36508;52.512;13.450;2023-06-26T12:29:28;8.00;;;7.60;;
50555;SDS011;36508;52.512;13.450;2023-06-26T12:31:55;6.93;;;6.57;;
50555;SDS011;36508;52.512;13.450;2023-06-26T12:34:27;6.97;;;6.67;;
50555;SDS011;36508;52.512;13.450;2023-06-26T12:37:03;7.43;;;6.83;;
50555;SDS011;36508;52.512;13.450;2023-06-26T12:39:30;6.97;;;6.63;;
50555;SDS011;36508;52.512;13.450;2023-06-26T12:42:13;7.50;;;7.10;;
50555;SDS011;36508;52.512;13.450;2023-06-26T12:44:39;8.17;;;7.77;;
50555;SDS011;36508;52.512;13.450;2023-06-26T12:47:08;8.27;;;7.87;;
50555;SDS011;36508;52.512;13.450;2023-06-26T12:49:39;7.80;;;7.30;;
50555;SDS011;36508;52.512;13.450;2023-06-26T12:52:15;8.03;;;7.33;;
50555;SDS011;36508;52.512;13.450;2023-06-26T12:54:54;9.10;;;8.60;;
50555;SDS011;36508;52.512;13.450;2023-06-26T12:57:28;8.03;;;7.63;;
50555;SDS011;36508;52.512;13.450;2023-06-26T13:00:20;10.63;;;8.77;;
50555;SDS011;36508;52.512;13.450;2023-06-26T13:02:53;7.60;;;7.30;;
50555;SDS011;36508;52.512;13.450;2023-06-26T13:05:19;8.17;;;7.73;;
50555;SDS011;36508;52.512;13.450;2023-06-26T13:07:45;8.57;;;7.77;;
50555;SDS011;36508;52.512;13.450;2023-06-26T13:10:12;9.90;;;9.30;;
50555;SDS011;36508;52.512;13.450;2023-06-26T13:12:38;8.83;;;8.30;;
50555;SDS011;36508;52.512;13.450;2023-06-26T13:15:04;9.17;;;8.70;;
50555;SDS011;36508;52.512;13.450;2023-06-26T13:17:30;9.27;;;8.53;;
50555;SDS011;36508;52.512;13.450;2023-06-26T13:19:56;8.37;;;7.97;;
50555;SDS011;36508;52.512;13.450;2023-06-26T13:22:22;9.17;;;8.67;;
50555;SDS011;36508;52.512;13.450;2023-06-26T13:24:48;10.80;;;10.20;;
50555;SDS011;36508;52.512;13.450;2023-06-26T13:27:14;8.37;;;7.97;;
50555;SDS011;36508;52.512;13.450;2023-06-26T13:29:41;8.40;;;8.00;;
50555;SDS011;36508;52.512;13.450;2023-06-26T13:32:07;10.20;;;9.60;;
50555;SDS011;36508;52.512;13.450;2023-06-26T13:34:33;10.27;;;9.67;;
50555;SDS011;36508;52.512;13.450;2023-06-26T13:36:59;11.57;;;10.57;;
50555;SDS011;36508;52.512;13.450;2023-06-26T13:39:27;9.60;;;9.00;;
50555;SDS011;36508;52.512;13.450;2023-06-26T13:41:59;8.70;;;8.13;;
50555;SDS011;36508;52.512;13.450;2023-06-26T13:44:25;9.83;;;9.00;;
50555;SDS011;36508;52.512;13.450;2023-06-26T13:46:51;9.77;;;9.13;;
50555;SDS011;36508;52.512;13.450;2023-06-26T13:49:17;9.03;;;8.60;;
50555;SDS011;36508;52.512;13.450;2023-06-26T13:51:46;9.57;;;9.00;;
50555;SDS011;36508;52.512;13.450;2023-06-26T13:54:13;9.13;;;8.63;;
50555;SDS011;36508;52.512;13.450;2023-06-26T13:56:39;8.37;;;7.73;;
50555;SDS011;36508;52.512;13.450;2023-06-26T13:59:04;10.13;;;9.40;;
50555;SDS011;36508;52.512;13.450;2023-06-26T14:01:30;8.60;;;8.10;;
50555;SDS011;36508;52.512;13.450;2023-06-26T14:03:57;8.50;;;7.90;;
50555;SDS011;36508;52.512;13.450;2023-06-26T14:06:22;9.70;;;9.20;;
50555;SDS011;36508;52.512;13.450;2023-06-26T14:08:48;8.80;;;8.20;;
50555;SDS011;36508;52.512;13.450;2023-06-26T14:11:14;10.03;;;9.43;;
50555;SDS011;36508;52.512;13.450;2023-06-26T14:13:40;8.63;;;8.23;;
50555;SDS011;36508;52.512;13.450;2023-06-26T14:16:08;10.10;;;9.60;;
50555;SDS011;36508;52.512;13.450;2023-06-26T14:18:34;9.20;;;8.50;;
50555;SDS011;36508;52.512;13.450;2023-06-26T14:21:00;9.30;;;8.77;;
50555;SDS011;36508;52.512;13.450;2023-06-26T14:23:27;8.93;;;8.33;;
50555;SDS011;36508;52.512;13.450;2023-06-26T14:25:52;27.40;;;11.57;;
50555;SDS011;36508;52.512;13.450;2023-06-26T14:28:18;14.80;;;7.40;;
50555;SDS011;36508;52.512;13.450;2023-06-26T14:30:44;7.50;;;6.70;;
50555;SDS011;36508;52.512;13.450;2023-06-26T14:33:10;8.60;;;7.70;;